Moffett Field, CA

5:12 PM PDT op 25 september 2016 (GMT -0700)
Moffett Federal Air Field | | Change Station
Actief advies: Heat Advisory Actieve aankondiging: Record Report

Hoogte 39 ft 37.41 °N, 122.05 °W | Updated 16 minutes ago

Clear
Helder
94 °F
Voelt als 94 °F
N
7
Wind Variabel Wind van noord

Vandaag
Hoog -- | Laag -- °F
--% Kans op neerslag
Gisteren
Hoog -- | Laag -- °F
Precip. -- inches
Druk 29.97 inches
Zicht 10.0 mijlen
Wolken Helder
Dauwpunt 47 °F
Vochtigheid 20%
Neerslag 0.00 inches
Dikte sneeuw Niet beschikbaar.
6:59 AM 6:59 PM
Afnemende halvemaan, 23% visible
METAR KNUQ 252356Z AUTO 35006KT 10SM CLR 34/08 A2996 RMK AO2 SLP148 T03440083 10356 20261 56016
Druk 29.97 inches
Zicht 10.0 mijlen
Wolken Helder
Dauwpunt 47 °F
Vochtigheid 20%
Neerslag 0.00 inches
Dikte sneeuw Niet beschikbaar.
6:59 AM 6:59 PM
Afnemende halvemaan, 23% visible
METAR KNUQ 252356Z AUTO 35006KT 10SM CLR 34/08 A2996 RMK AO2 SLP148 T03440083 10356 20261 56016

10-Day Weather Forecast

Almanac

Astronomie

Sep. 25, 2016 Opkomst Ondergang
Werkelijke tijd
Burgerlijke schemering
Nautische schemering
Astronomische schemering
Maan
Golflengte van het zichtbare licht
Daglengte
Tomorrow will be .
, % of the Moon is Illuminated

Extremen vandaag

State Highs State Lows

Community

WunderPhotos

Upload Photos

1,941,789 foto’s ge-upload!

WunderBlog® & News

Nearby

Luchtkwaliteit

  Luchtkwaliteit LK-index Verontreinigende stof
Not available.

Dikte sneeuw

Station Depth Geometrische hoogte

Aardbevingen

Stad Distance Mag. Time & Date
Minimum magnitude displayed is 2.5.

Watertemperatuur langs de kust

Plaats Temperatuur

Stations

Nabije weerstations

Locatie station Temp. Gevoelstemperatuur Dauwpunt Vochtigheid Wind Precip. Hoogte Geactualiseerd Type
                   

Watches & Warnings

Heat Advisory
Issued: 3:45 AM PDT Sep. 25, 2016 – National Weather Service

... Heat advisory remains in effect from 11 am this morning to
8 PM PDT this evening...
... Heat advisory remains in effect from 11 am to 8 PM PDT
Monday...

* temperature... highs will mostly be in the mid 80s to mid 90s
near the coast with mid 90s to 105 for inland areas.

* Location... the entire San Francisco Bay area and entire
Monterey Bay area.

* Timing... hottest days are expected to be Sunday and Monday.
Modest cooling will occur on Tuesday... mainly near the coast.
Much more significant and widespread cooling is forecast to
occur by Wednesday.

* Impacts... the heat will result in elevated health risks for
those who are sensitive to heat.

Precautionary/preparedness actions...

A heat advisory means that a period of hot temperatures is
expected. Hot temperatures will create a situation in which heat
illnesses are possible. Drink plenty of fluids... stay in an air-
conditioned room... stay out of the sun... and check up on relatives
and neighbors. Never leave kids or pets in vehicles as
temperatures can quickly reach very dangerous levels.